Time;durP1;ratioP1;P1;durP2;ratioP2;P2;SDS_P1;SDS_P2;PMS_P1;PMS_P2;Temp;Humidity;BMP_temperature;BMP_pressure;BME280_temperature;BME280_humidity;BME280_pressure;Samples;Min_cycle;Max_cycle;Signal;HPM_P1;HPM_P2
2021/07/15 00:00:42;;;;;;;0.90;0.40;;;;;;;;;;4953572;29;20106;-70
2021/07/15 00:03:10;;;;;;;0.65;0.25;;;;;;;;;;4953728;29;20047;-70
2021/07/15 00:05:38;;;;;;;0.30;0.30;;;;;;;;;;4953417;29;20499;-70
2021/07/15 00:08:06;;;;;;;0.65;0.20;;;;;;;;;;4952156;29;20051;-70
2021/07/15 00:10:38;;;;;;;1.15;0.30;;;;;;;;;;4942506;29;20089;-70
2021/07/15 00:13:05;;;;;;;1.85;0.30;;;;;;;;;;4934342;29;20165;-69
2021/07/15 00:15:35;;;;;;;1.13;0.40;;;;;;;;;;4937419;29;20056;-69
2021/07/15 00:18:03;;;;;;;1.33;0.40;;;;;;;;;;4938171;29;20059;-69
2021/07/15 00:20:39;;;;;;;1.70;0.40;;;;;;;;;;4938184;29;20083;-69
2021/07/15 00:23:06;;;;;;;0.35;0.35;;;;;;;;;;4938165;29;20052;-69
2021/07/15 00:25:33;;;;;;;1.35;0.50;;;;;;;;;;4938306;29;20107;-70
2021/07/15 00:28:00;;;;;;;1.45;0.75;;;;;;;;;;4938246;29;20075;-69
2021/07/15 00:30:26;;;;;;;0.20;0.20;;;;;;;;;;4937892;29;20087;-69
2021/07/15 00:32:53;;;;;;;0.15;0.15;;;;;;;;;;4937769;29;20048;-69
2021/07/15 00:35:19;;;;;;;0.88;0.20;;;;;;;;;;4937854;29;20051;-69
2021/07/15 00:37:46;;;;;;;0.40;0.20;;;;;;;;;;4936811;29;20490;-69
2021/07/15 00:40:15;;;;;;;0.80;0.22;;;;;;;;;;4937951;29;20075;-69
2021/07/15 00:42:41;;;;;;;0.32;0.10;;;;;;;;;;4937717;29;20091;-69
2021/07/15 00:45:09;;;;;;;0.40;0.17;;;;;;;;;;4937623;29;20107;-69
2021/07/15 00:47:36;;;;;;;0.10;0.10;;;;;;;;;;4937857;29;20097;-69
2021/07/15 00:50:04;;;;;;;0.10;0.10;;;;;;;;;;4937773;29;20083;-69
2021/07/15 00:52:31;;;;;;;0.10;0.10;;;;;;;;;;4937392;29;20511;-69
2021/07/15 00:54:58;;;;;;;0.38;0.13;;;;;;;;;;4936501;29;20059;-69
2021/07/15 00:57:25;;;;;;;0.65;0.20;;;;;;;;;;4936347;29;20515;-69
2021/07/15 00:59:51;;;;;;;1.10;0.20;;;;;;;;;;4936386;29;20135;-69
2021/07/15 01:02:18;;;;;;;0.22;0.20;;;;;;;;;;4937518;29;20134;-69
2021/07/15 01:04:45;;;;;;;0.63;0.30;;;;;;;;;;4937260;29;20055;-69
2021/07/15 01:07:12;;;;;;;1.00;0.20;;;;;;;;;;4937805;29;20106;-69
2021/07/15 01:09:38;;;;;;;0.40;0.22;;;;;;;;;;4952762;29;20078;-69
2021/07/15 01:12:28;;;;;;;1.30;0.40;;;;;;;;;;4955218;29;20107;-69
2021/07/15 01:15:00;;;;;;;0.20;0.20;;;;;;;;;;4955110;29;20134;-68
2021/07/15 01:17:30;;;;;;;0.20;0.10;;;;;;;;;;4955536;29;20083;-69
2021/07/15 01:20:18;;;;;;;0.68;0.15;;;;;;;;;;4937695;29;20481;-70
2021/07/15 01:23:02;;;;;;;0.57;0.20;;;;;;;;;;4937256;29;20147;-69
2021/07/15 01:25:59;;;;;;;0.95;0.13;;;;;;;;;;4935088;29;20075;-69
2021/07/15 01:29:01;;;;;;;0.30;0.30;;;;;;;;;;4937250;29;20075;-69
2021/07/15 01:31:29;;;;;;;0.40;0.30;;;;;;;;;;4936144;29;20107;-69
2021/07/15 01:33:55;;;;;;;0.57;0.20;;;;;;;;;;4920337;29;20060;-69
2021/07/15 01:36:22;;;;;;;0.10;0.10;;;;;;;;;;4935601;29;20086;-69
2021/07/15 01:38:57;;;;;;;1.60;0.50;;;;;;;;;;4945032;29;20047;-69
2021/07/15 01:41:29;;;;;;;0.60;0.22;;;;;;;;;;4941146;29;20079;-69
2021/07/15 01:43:59;;;;;;;0.35;0.20;;;;;;;;;;4935786;29;20187;-69
2021/07/15 01:46:26;;;;;;;0.45;0.20;;;;;;;;;;4935504;29;20055;-70
2021/07/15 01:48:53;;;;;;;0.80;0.30;;;;;;;;;;4935611;29;20079;-69
2021/07/15 01:51:19;;;;;;;1.42;0.77;;;;;;;;;;4950903;29;20075;-70
2021/07/15 01:53:47;;;;;;;0.13;0.13;;;;;;;;;;4954411;29;20083;-69
2021/07/15 01:56:13;;;;;;;1.13;0.17;;;;;;;;;;4954391;29;20175;-69
2021/07/15 01:58:40;;;;;;;0.10;0.10;;;;;;;;;;4954188;29;20137;-69
2021/07/15 02:01:08;;;;;;;0.85;0.10;;;;;;;;;;4953834;29;20055;-70
2021/07/15 02:03:37;;;;;;;0.03;0.00;;;;;;;;;;4949349;29;20130;-69
2021/07/15 02:06:04;;;;;;;2.20;0.20;;;;;;;;;;4955427;29;20090;-69
2021/07/15 02:08:30;;;;;;;0.65;0.10;;;;;;;;;;4955464;29;20083;-70
2021/07/15 02:10:57;;;;;;;0.65;0.10;;;;;;;;;;4954115;29;20075;-69
2021/07/15 02:13:24;;;;;;;0.05;0.05;;;;;;;;;;4935015;29;20483;-69
2021/07/15 02:15:51;;;;;;;0.30;0.30;;;;;;;;;;4934972;29;20090;-69
2021/07/15 02:18:18;;;;;;;0.75;0.10;;;;;;;;;;4934997;29;20089;-69
2021/07/15 02:20:47;;;;;;;2.05;0.20;;;;;;;;;;4934862;29;20114;-69
2021/07/15 02:23:13;;;;;;;0.45;0.10;;;;;;;;;;4934885;29;20491;-69
2021/07/15 02:25:43;;;;;;;0.10;0.10;;;;;;;;;;4961255;23;20054;-71
2021/07/15 02:28:11;;;;;;;0.10;0.10;;;;;;;;;;4984462;28;20151;-72
2021/07/15 02:30:37;;;;;;;0.98;0.00;;;;;;;;;;4983526;28;20058;-72
2021/07/15 02:33:08;;;;;;;0.32;0.13;;;;;;;;;;4982279;28;20410;-72
2021/07/15 02:35:41;;;;;;;3.10;0.38;;;;;;;;;;4982644;28;20042;-72
2021/07/15 02:38:11;;;;;;;0.38;0.10;;;;;;;;;;4965882;28;20449;-71
2021/07/15 02:40:38;;;;;;;0.20;0.10;;;;;;;;;;4964871;28;20049;-72
2021/07/15 02:43:05;;;;;;;0.20;0.10;;;;;;;;;;4983173;28;20050;-72
2021/07/15 02:45:31;;;;;;;0.10;0.10;;;;;;;;;;4983217;28;20051;-72
2021/07/15 02:47:58;;;;;;;0.75;0.17;;;;;;;;;;4987805;28;20118;-72
2021/07/15 02:50:26;;;;;;;0.20;0.10;;;;;;;;;;4986340;28;20050;-72
2021/07/15 02:52:54;;;;;;;2.95;0.30;;;;;;;;;;4986741;28;20051;-72
2021/07/15 02:55:21;;;;;;;0.32;0.22;;;;;;;;;;4987463;28;20066;-72
2021/07/15 02:58:10;;;;;;;0.10;0.10;;;;;;;;;;4987364;28;20055;-72
2021/07/15 03:00:59;;;;;;;1.75;0.20;;;;;;;;;;4984808;28;20049;-72
2021/07/15 03:03:35;;;;;;;1.67;0.17;;;;;;;;;;4987510;28;20175;-72
2021/07/15 03:06:24;;;;;;;1.70;0.32;;;;;;;;;;4979789;28;20050;-72
2021/07/15 03:08:56;;;;;;;2.38;0.22;;;;;;;;;;4980164;28;20050;-72
2021/07/15 03:11:28;;;;;;;0.45;0.03;;;;;;;;;;4982836;28;20058;-72
2021/07/15 03:13:55;;;;;;;0.17;0.10;;;;;;;;;;4977992;28;20050;-72
2021/07/15 03:16:22;;;;;;;0.20;0.10;;;;;;;;;;4967816;28;20046;-72
2021/07/15 03:18:49;;;;;;;0.22;0.10;;;;;;;;;;4956565;28;20358;-72
2021/07/15 03:21:16;;;;;;;0.32;0.20;;;;;;;;;;4956364;28;20093;-73
2021/07/15 03:23:43;;;;;;;0.30;0.20;;;;;;;;;;4972094;28;20109;-72
2021/07/15 03:26:09;;;;;;;1.17;0.20;;;;;;;;;;4972054;28;20081;-72
2021/07/15 03:28:37;;;;;;;0.20;0.20;;;;;;;;;;4956234;28;20085;-72
2021/07/15 03:31:06;;;;;;;1.08;0.20;;;;;;;;;;4956227;28;20093;-72
2021/07/15 03:33:34;;;;;;;0.90;0.30;;;;;;;;;;4973661;28;20050;-73
2021/07/15 03:36:04;;;;;;;0.00;0.00;;;;;;;;;;4956222;28;20087;-73
2021/07/15 03:38:32;;;;;;;1.52;0.20;;;;;;;;;;4972193;28;20085;-72
2021/07/15 03:41:03;;;;;;;0.82;0.50;;;;;;;;;;4972930;28;20089;-72
2021/07/15 03:43:30;;;;;;;0.82;0.40;;;;;;;;;;4972122;28;20497;-72
2021/07/15 03:45:56;;;;;;;0.32;0.10;;;;;;;;;;4971991;28;20074;-72
2021/07/15 03:48:24;;;;;;;0.20;0.10;;;;;;;;;;4955902;28;20078;-72
2021/07/15 03:50:50;;;;;;;0.22;0.20;;;;;;;;;;4955922;28;20047;-72
2021/07/15 03:53:17;;;;;;;0.30;0.28;;;;;;;;;;4956171;28;20081;-72
2021/07/15 03:55:44;;;;;;;0.22;0.20;;;;;;;;;;4971621;28;20093;-72
2021/07/15 03:58:10;;;;;;;0.13;0.13;;;;;;;;;;4971949;28;20138;-72
2021/07/15 04:00:37;;;;;;;0.57;0.20;;;;;;;;;;4971723;28;20081;-72
2021/07/15 04:03:05;;;;;;;1.00;0.43;;;;;;;;;;4955983;28;20407;-72
2021/07/15 04:05:32;;;;;;;2.92;0.30;;;;;;;;;;4955910;28;20093;-72
2021/07/15 04:07:59;;;;;;;1.13;0.30;;;;;;;;;;4955855;28;20093;-72
2021/07/15 04:10:27;;;;;;;0.40;0.13;;;;;;;;;;4955902;28;20050;-72
2021/07/15 04:12:54;;;;;;;0.45;0.20;;;;;;;;;;4955651;28;20078;-72
2021/07/15 04:15:20;;;;;;;0.45;0.30;;;;;;;;;;4955404;28;20058;-72
2021/07/15 04:17:55;;;;;;;0.85;0.35;;;;;;;;;;4971128;28;20078;-72
2021/07/15 04:20:23;;;;;;;1.35;0.22;;;;;;;;;;4955802;28;20137;-72
2021/07/15 04:22:52;;;;;;;0.70;0.20;;;;;;;;;;4956017;28;20078;-72
2021/07/15 04:25:21;;;;;;;0.20;0.03;;;;;;;;;;4971658;28;20398;-72
2021/07/15 04:27:49;;;;;;;0.90;0.20;;;;;;;;;;4971585;28;20175;-72
2021/07/15 04:30:16;;;;;;;0.70;0.20;;;;;;;;;;4972962;28;20093;-72
2021/07/15 04:32:59;;;;;;;0.80;0.20;;;;;;;;;;4971210;28;20093;-71
2021/07/15 04:35:26;;;;;;;0.20;0.17;;;;;;;;;;4957175;28;20080;-72
2021/07/15 04:37:53;;;;;;;0.20;0.10;;;;;;;;;;4972888;28;20055;-71
2021/07/15 04:40:25;;;;;;;0.30;0.30;;;;;;;;;;4972591;28;20140;-71
2021/07/15 04:42:53;;;;;;;2.35;0.20;;;;;;;;;;4971460;28;20081;-71
2021/07/15 04:45:24;;;;;;;0.10;0.10;;;;;;;;;;4971419;28;20082;-71
2021/07/15 04:47:53;;;;;;;0.57;0.10;;;;;;;;;;4972644;28;20441;-71
2021/07/15 04:50:25;;;;;;;0.10;0.10;;;;;;;;;;4971442;28;20078;-71
2021/07/15 04:52:56;;;;;;;0.40;0.10;;;;;;;;;;4971223;28;20082;-71
2021/07/15 04:55:23;;;;;;;1.85;0.40;;;;;;;;;;4971016;28;20093;-71
2021/07/15 04:57:53;;;;;;;0.30;0.20;;;;;;;;;;4955487;28;20150;-71
2021/07/15 05:00:21;;;;;;;0.52;0.10;;;;;;;;;;4973592;28;20520;-71
2021/07/15 05:02:50;;;;;;;0.32;0.10;;;;;;;;;;4974794;28;20062;-71
2021/07/15 05:05:20;;;;;;;;;;;;;;;;;;4963057;28;20533;-72
2021/07/15 05:07:46;;;;;;;1.00;0.20;;;;;;;;;;4956321;28;19961;-71
2021/07/15 05:10:13;;;;;;;1.10;0.10;;;;;;;;;;4969945;28;20403;-71
2021/07/15 05:12:40;;;;;;;0.75;0.20;;;;;;;;;;4975565;28;20055;-72
2021/07/15 05:15:08;;;;;;;0.20;0.20;;;;;;;;;;4975893;28;20590;-72
2021/07/15 05:17:36;;;;;;;0.38;0.10;;;;;;;;;;4975728;28;20110;-72
2021/07/15 05:20:07;;;;;;;1.00;0.10;;;;;;;;;;4975399;28;20494;-72
2021/07/15 05:22:34;;;;;;;0.13;0.13;;;;;;;;;;4973915;28;20089;-72
2021/07/15 05:25:00;;;;;;;0.20;0.10;;;;;;;;;;4974276;28;20050;-72
2021/07/15 05:27:27;;;;;;;0.30;0.10;;;;;;;;;;4975388;28;20062;-72
2021/07/15 05:29:53;;;;;;;2.08;0.20;;;;;;;;;;4975622;28;20074;-72
2021/07/15 05:32:20;;;;;;;0.20;0.20;;;;;;;;;;4975377;28;20078;-72
2021/07/15 05:34:47;;;;;;;3.13;0.30;;;;;;;;;;4975099;28;20465;-73
2021/07/15 05:37:13;;;;;;;1.40;0.20;;;;;;;;;;4975164;28;20055;-72
2021/07/15 05:39:43;;;;;;;0.70;0.20;;;;;;;;;;4974908;28;20076;-73
2021/07/15 05:42:11;;;;;;;0.20;0.20;;;;;;;;;;4974029;28;20055;-72
2021/07/15 05:44:38;;;;;;;0.30;0.20;;;;;;;;;;4975216;28;20553;-72
2021/07/15 05:47:07;;;;;;;0.20;0.20;;;;;;;;;;4975299;28;20082;-72
2021/07/15 05:49:38;;;;;;;0.45;0.40;;;;;;;;;;4975135;28;20050;-73
2021/07/15 05:52:08;;;;;;;2.00;0.30;;;;;;;;;;4973969;28;20092;-72
2021/07/15 05:54:34;;;;;;;1.13;0.30;;;;;;;;;;4975061;28;20102;-72
2021/07/15 05:57:01;;;;;;;0.68;0.30;;;;;;;;;;4975223;28;20089;-73
2021/07/15 05:59:28;;;;;;;3.85;0.30;;;;;;;;;;4974836;28;20105;-72
2021/07/15 06:01:54;;;;;;;0.98;0.30;;;;;;;;;;4975139;28;20461;-73
2021/07/15 06:04:22;;;;;;;0.80;0.30;;;;;;;;;;4974769;28;20105;-73
2021/07/15 06:06:48;;;;;;;1.52;0.65;;;;;;;;;;4974757;28;20109;-72
2021/07/15 06:09:15;;;;;;;3.13;0.50;;;;;;;;;;4974745;28;20284;-72
2021/07/15 06:11:41;;;;;;;0.82;0.25;;;;;;;;;;4974487;28;20222;-72
2021/07/15 06:14:08;;;;;;;2.25;0.60;;;;;;;;;;4974707;28;20093;-72
2021/07/15 06:16:34;;;;;;;0.40;0.30;;;;;;;;;;4972407;28;20050;-72
2021/07/15 06:19:02;;;;;;;1.13;0.30;;;;;;;;;;4972990;28;20085;-72
2021/07/15 06:21:29;;;;;;;1.73;0.40;;;;;;;;;;4972298;28;20118;-72
2021/07/15 06:23:55;;;;;;;2.10;0.45;;;;;;;;;;4972737;28;20133;-72
2021/07/15 06:26:22;;;;;;;0.45;0.40;;;;;;;;;;4972167;28;20054;-73
2021/07/15 06:28:49;;;;;;;2.67;0.40;;;;;;;;;;4971924;28;20157;-72
2021/07/15 06:31:15;;;;;;;1.38;0.50;;;;;;;;;;4971642;28;20086;-72
2021/07/15 06:33:42;;;;;;;2.85;0.50;;;;;;;;;;4972185;28;20089;-73
2021/07/15 06:36:09;;;;;;;0.95;0.32;;;;;;;;;;4972101;28;20050;-72
2021/07/15 06:38:37;;;;;;;3.13;0.93;;;;;;;;;;4972287;28;20306;-72
2021/07/15 06:41:06;;;;;;;5.65;1.73;;;;;;;;;;4970935;28;20075;-72
2021/07/15 06:43:33;;;;;;;1.58;0.88;;;;;;;;;;4971540;28;20104;-72
2021/07/15 06:46:00;;;;;;;3.45;1.60;;;;;;;;;;4972098;28;20510;-72
2021/07/15 06:48:27;;;;;;;0.82;0.60;;;;;;;;;;4972011;28;20079;-72
2021/07/15 06:50:54;;;;;;;0.88;0.60;;;;;;;;;;4971588;28;20078;-72
2021/07/15 06:53:21;;;;;;;1.30;0.80;;;;;;;;;;4971743;28;20485;-73
2021/07/15 06:55:48;;;;;;;1.00;0.70;;;;;;;;;;4969999;28;20050;-73
2021/07/15 06:58:14;;;;;;;1.80;0.65;;;;;;;;;;4971738;28;20101;-73
2021/07/15 07:00:41;;;;;;;2.85;0.40;;;;;;;;;;4954120;28;20368;-73
2021/07/15 07:03:12;;;;;;;1.70;0.50;;;;;;;;;;4952331;29;20403;-73
2021/07/15 07:05:41;;;;;;;2.58;0.43;;;;;;;;;;4952232;28;20098;-73
2021/07/15 07:08:09;;;;;;;2.67;0.20;;;;;;;;;;4953757;28;20462;-73
2021/07/15 07:10:35;;;;;;;1.63;0.22;;;;;;;;;;4971778;28;20047;-73
2021/07/15 07:13:02;;;;;;;0.57;0.20;;;;;;;;;;4971895;28;20047;-73
2021/07/15 07:15:29;;;;;;;1.10;0.22;;;;;;;;;;4970036;28;20493;-73
2021/07/15 07:17:56;;;;;;;1.38;0.30;;;;;;;;;;4970457;28;20085;-74
2021/07/15 07:20:22;;;;;;;1.88;0.40;;;;;;;;;;4969966;28;20494;-74
2021/07/15 07:22:49;;;;;;;1.08;0.20;;;;;;;;;;4970640;28;20104;-73
2021/07/15 07:25:17;;;;;;;7.13;0.38;;;;;;;;;;4971287;28;20059;-71
2021/07/15 07:27:45;;;;;;;1.38;0.20;;;;;;;;;;4958666;28;20078;-71
2021/07/15 07:30:14;;;;;;;2.30;0.50;;;;;;;;;;4959754;28;20074;-71
2021/07/15 07:32:41;;;;;;;0.80;0.30;;;;;;;;;;4960382;28;20051;-71
2021/07/15 07:35:09;;;;;;;3.90;0.32;;;;;;;;;;4960721;28;20047;-71
2021/07/15 07:37:35;;;;;;;0.55;0.35;;;;;;;;;;4958073;28;20051;-72
2021/07/15 07:40:06;;;;;;;2.10;0.30;;;;;;;;;;4957550;28;20464;-71
2021/07/15 07:42:32;;;;;;;1.75;0.32;;;;;;;;;;4955980;28;20130;-72
2021/07/15 07:44:59;;;;;;;1.73;0.50;;;;;;;;;;4956912;28;20055;-72
2021/07/15 07:47:25;;;;;;;1.00;0.20;;;;;;;;;;4958616;28;20395;-71
2021/07/15 07:49:52;;;;;;;2.10;0.30;;;;;;;;;;4956898;28;20092;-71
2021/07/15 07:52:18;;;;;;;0.70;0.30;;;;;;;;;;4958381;28;20051;-71
2021/07/15 07:54:45;;;;;;;0.55;0.38;;;;;;;;;;4956844;28;20629;-71
2021/07/15 07:57:12;;;;;;;0.55;0.10;;;;;;;;;;4958611;28;20129;-69
2021/07/15 07:59:38;;;;;;;5.18;0.32;;;;;;;;;;4956703;28;20079;-69
2021/07/15 08:02:05;;;;;;;54.83;5.78;;;;;;;;;;4961312;28;20537;-70
2021/07/15 08:04:32;;;;;;;2.30;0.30;;;;;;;;;;4960350;28;20061;-71
2021/07/15 08:06:59;;;;;;;0.32;0.28;;;;;;;;;;4959126;28;20535;-69
2021/07/15 08:09:27;;;;;;;1.08;0.20;;;;;;;;;;4957214;28;20051;-69
2021/07/15 08:11:55;;;;;;;1.73;0.30;;;;;;;;;;4965443;28;20493;-70
2021/07/15 08:14:22;;;;;;;0.38;0.30;;;;;;;;;;4962493;28;20047;-71
2021/07/15 08:16:50;;;;;;;2.00;1.00;;;;;;;;;;4962721;28;20084;-74
2021/07/15 08:19:20;;;;;;;0.40;0.20;;;;;;;;;;4960834;28;20277;-74
2021/07/15 08:21:47;;;;;;;2.72;0.40;;;;;;;;;;4960314;28;20391;-70
2021/07/15 08:24:14;;;;;;;3.35;0.35;;;;;;;;;;4959351;28;20047;-69
2021/07/15 08:26:40;;;;;;;0.50;0.30;;;;;;;;;;4981816;23;20498;-67
2021/07/15 08:29:07;;;;;;;2.20;0.30;;;;;;;;;;4960305;28;20074;-68
2021/07/15 08:31:33;;;;;;;0.55;0.20;;;;;;;;;;4962136;28;20078;-67
2021/07/15 08:34:00;;;;;;;0.93;0.20;;;;;;;;;;4960402;28;20069;-66
2021/07/15 08:36:29;;;;;;;0.50;0.10;;;;;;;;;;4961586;28;20058;-66
2021/07/15 08:38:55;;;;;;;0.20;0.10;;;;;;;;;;4965439;28;20085;-66
2021/07/15 08:41:22;;;;;;;0.90;0.43;;;;;;;;;;4962700;28;20817;-66
2021/07/15 08:43:48;;;;;;;1.05;0.30;;;;;;;;;;4964553;28;20130;-66
2021/07/15 08:46:15;;;;;;;0.90;0.20;;;;;;;;;;4964885;28;20083;-65
2021/07/15 08:48:44;;;;;;;0.20;0.10;;;;;;;;;;4962570;28;20082;-66
2021/07/15 08:51:10;;;;;;;0.13;0.10;;;;;;;;;;4946775;28;20051;-66
2021/07/15 08:53:37;;;;;;;1.17;0.20;;;;;;;;;;4960897;28;20502;-65
2021/07/15 08:58:50;;;;;;;0.20;0.10;;;;;;;;;;4963424;28;20086;-67
2021/07/15 09:01:17;;;;;;;3.15;0.20;;;;;;;;;;4963864;28;20082;-66
2021/07/15 09:03:44;;;;;;;2.20;0.22;;;;;;;;;;4962308;28;20472;-67
2021/07/15 09:06:11;;;;;;;0.10;0.10;;;;;;;;;;4961587;28;20537;-66
2021/07/15 09:08:38;;;;;;;2.83;0.10;;;;;;;;;;4943091;28;20050;-66
2021/07/15 09:11:04;;;;;;;1.35;0.30;;;;;;;;;;4963601;28;20043;-66
2021/07/15 09:13:31;;;;;;;0.60;0.20;;;;;;;;;;4962689;28;20477;-66
2021/07/15 09:15:58;;;;;;;3.22;0.30;;;;;;;;;;4961949;28;20061;-66
2021/07/15 09:18:25;;;;;;;0.98;0.20;;;;;;;;;;4962960;28;20046;-66
2021/07/15 09:20:51;;;;;;;1.20;0.25;;;;;;;;;;4961972;28;20144;-66
2021/07/15 09:23:19;;;;;;;0.43;0.20;;;;;;;;;;4963496;28;20513;-65
2021/07/15 09:25:46;;;;;;;0.22;0.10;;;;;;;;;;4963461;28;20082;-66
2021/07/15 09:28:14;;;;;;;1.10;0.10;;;;;;;;;;4960833;28;20449;-70
2021/07/15 09:30:43;;;;;;;0.20;0.10;;;;;;;;;;4964821;28;20059;-71
2021/07/15 09:33:11;;;;;;;0.40;0.10;;;;;;;;;;4966366;28;20055;-70
2021/07/15 09:35:48;;;;;;;0.38;0.15;;;;;;;;;;4963350;28;20074;-66
2021/07/15 09:38:22;;;;;;;1.48;0.20;;;;;;;;;;4961240;28;20043;-70
2021/07/15 09:40:55;;;;;;;2.13;0.20;;;;;;;;;;4966276;28;20090;-73
2021/07/15 09:43:23;;;;;;;0.47;0.20;;;;;;;;;;4954488;28;20051;-71
2021/07/15 09:45:55;;;;;;;0.57;0.10;;;;;;;;;;4958837;28;20051;-71
2021/07/15 09:48:28;;;;;;;1.93;0.30;;;;;;;;;;4967774;28;20054;-72
2021/07/15 09:50:57;;;;;;;0.68;0.25;;;;;;;;;;4963281;28;20074;-68
2021/07/15 09:53:23;;;;;;;0.45;0.10;;;;;;;;;;4964828;28;20098;-72
2021/07/15 09:56:20;;;;;;;0.88;0.20;;;;;;;;;;4962543;28;21881;-70
2021/07/15 09:58:48;;;;;;;0.35;0.20;;;;;;;;;;4960991;28;20093;-68
2021/07/15 10:01:16;;;;;;;0.32;0.20;;;;;;;;;;4963853;28;20047;-70
2021/07/15 10:03:45;;;;;;;0.38;0.30;;;;;;;;;;4962468;28;20092;-70
2021/07/15 10:06:13;;;;;;;1.38;0.10;;;;;;;;;;4968488;28;20429;-69
2021/07/15 10:08:41;;;;;;;1.15;0.20;;;;;;;;;;4965869;28;20059;-67
2021/07/15 10:11:19;;;;;;;0.32;0.10;;;;;;;;;;4957985;28;20113;-69
2021/07/15 10:13:59;;;;;;;1.58;0.05;;;;;;;;;;4961866;28;20092;-68
2021/07/15 10:16:34;;;;;;;0.17;0.10;;;;;;;;;;4961587;28;20528;-68
2021/07/15 10:19:01;;;;;;;0.10;0.10;;;;;;;;;;4962595;28;20066;-67
2021/07/15 10:21:30;;;;;;;0.43;0.28;;;;;;;;;;4959548;28;20377;-68
2021/07/15 10:23:58;;;;;;;0.17;0.17;;;;;;;;;;4958101;28;20146;-68
2021/07/15 10:26:26;;;;;;;1.20;0.20;;;;;;;;;;4958117;28;20082;-70
2021/07/15 10:28:53;;;;;;;1.20;0.20;;;;;;;;;;4961279;28;20055;-68
2021/07/15 10:31:21;;;;;;;1.77;0.32;;;;;;;;;;4956583;28;20134;-70
2021/07/15 10:33:48;;;;;;;1.95;0.20;;;;;;;;;;4962371;28;20395;-67
2021/07/15 10:36:15;;;;;;;0.17;0.17;;;;;;;;;;4957837;28;20061;-68
2021/07/15 10:38:44;;;;;;;0.20;0.20;;;;;;;;;;4958372;28;20520;-69
2021/07/15 10:41:11;;;;;;;0.28;0.20;;;;;;;;;;4959460;28;20138;-71
2021/07/15 10:43:39;;;;;;;0.82;0.20;;;;;;;;;;4960295;28;20047;-69
2021/07/15 10:46:06;;;;;;;0.52;0.30;;;;;;;;;;4960350;28;20085;-68
2021/07/15 10:48:37;;;;;;;0.20;0.20;;;;;;;;;;4959839;28;20141;-72
2021/07/15 10:51:05;;;;;;;0.20;0.20;;;;;;;;;;4959171;28;20121;-66
2021/07/15 10:53:34;;;;;;;1.17;0.38;;;;;;;;;;4962163;28;20094;-67
2021/07/15 10:56:03;;;;;;;1.08;0.28;;;;;;;;;;4955199;28;20117;-65
2021/07/15 10:58:48;;;;;;;0.77;0.25;;;;;;;;;;4958791;28;20528;-67
2021/07/15 11:01:30;;;;;;;0.35;0.30;;;;;;;;;;4959857;28;20534;-68
2021/07/15 11:04:17;;;;;;;0.38;0.10;;;;;;;;;;4959633;28;20457;-69
2021/07/15 11:06:44;;;;;;;0.57;0.57;;;;;;;;;;4960335;28;20039;-70
2021/07/15 11:09:31;;;;;;;0.75;0.20;;;;;;;;;;4960313;28;20051;-68
2021/07/15 11:11:58;;;;;;;1.77;0.50;;;;;;;;;;4954376;28;20141;-68
2021/07/15 11:14:41;;;;;;;0.85;0.22;;;;;;;;;;4961863;28;20051;-70
2021/07/15 11:17:28;;;;;;;0.30;0.20;;;;;;;;;;4958489;28;20038;-69
2021/07/15 11:20:05;;;;;;;1.65;0.20;;;;;;;;;;4958681;28;20051;-69
2021/07/15 11:22:45;;;;;;;1.40;0.32;;;;;;;;;;4960526;28;20106;-69
2021/07/15 11:25:27;;;;;;;0.68;0.30;;;;;;;;;;4962629;28;20130;-70
2021/07/15 11:27:56;;;;;;;4.35;0.32;;;;;;;;;;4960345;28;20502;-69
2021/07/15 11:30:28;;;;;;;0.73;0.20;;;;;;;;;;4959425;28;20055;-69
2021/07/15 11:32:56;;;;;;;0.98;0.20;;;;;;;;;;4958702;28;20099;-69
2021/07/15 11:35:27;;;;;;;0.15;0.15;;;;;;;;;;4956243;28;20571;-69
2021/07/15 11:38:12;;;;;;;0.30;0.25;;;;;;;;;;4960516;28;20157;-70
2021/07/15 11:40:43;;;;;;;0.32;0.20;;;;;;;;;;4962361;28;20046;-71
2021/07/15 11:43:31;;;;;;;1.77;0.30;;;;;;;;;;4959854;28;20078;-69
2021/07/15 11:46:11;;;;;;;0.40;0.30;;;;;;;;;;4957055;28;20090;-69
2021/07/15 11:48:41;;;;;;;0.65;0.20;;;;;;;;;;4963219;28;20051;-69
2021/07/15 11:51:38;;;;;;;0.30;0.20;;;;;;;;;;4961347;28;20047;-69
2021/07/15 11:54:16;;;;;;;1.40;0.65;;;;;;;;;;4963732;28;20162;-69
2021/07/15 11:56:44;;;;;;;0.22;0.20;;;;;;;;;;4955992;28;20047;-69
2021/07/15 11:59:11;;;;;;;1.58;0.30;;;;;;;;;;4958323;28;20510;-69
2021/07/15 12:01:38;;;;;;;0.20;0.20;;;;;;;;;;4962817;28;20494;-69
2021/07/15 12:04:07;;;;;;;0.55;0.10;;;;;;;;;;4959451;28;20502;-69
2021/07/15 12:06:38;;;;;;;0.50;0.20;;;;;;;;;;4963792;28;20071;-69
2021/07/15 12:09:10;;;;;;;2.03;0.30;;;;;;;;;;4959393;28;20514;-69
2021/07/15 12:11:38;;;;;;;0.32;0.32;;;;;;;;;;4966103;28;20050;-68
2021/07/15 12:14:06;;;;;;;0.30;0.30;;;;;;;;;;4966424;28;20078;-69
2021/07/15 12:16:34;;;;;;;0.40;0.22;;;;;;;;;;4972420;28;20051;-68
2021/07/15 12:19:03;;;;;;;0.43;0.22;;;;;;;;;;4974571;28;20107;-68
2021/07/15 12:21:30;;;;;;;2.13;0.20;;;;;;;;;;4975742;28;20101;-69
2021/07/15 12:24:16;;;;;;;0.30;0.20;;;;;;;;;;4967111;28;20102;-68
2021/07/15 12:26:43;;;;;;;0.77;0.17;;;;;;;;;;4965488;28;20121;-68
2021/07/15 12:29:15;;;;;;;0.65;0.20;;;;;;;;;;4968031;28;20050;-68
2021/07/15 12:31:42;;;;;;;2.23;0.30;;;;;;;;;;4966595;28;20524;-70
2021/07/15 12:34:09;;;;;;;0.63;0.30;;;;;;;;;;4968353;28;20098;-68
2021/07/15 12:36:39;;;;;;;0.38;0.20;;;;;;;;;;4962577;28;20518;-68
2021/07/15 12:39:10;;;;;;;0.28;0.10;;;;;;;;;;4968020;28;20081;-68
2021/07/15 12:41:41;;;;;;;1.25;0.30;;;;;;;;;;4966610;28;20078;-69
2021/07/15 12:44:12;;;;;;;0.30;0.20;;;;;;;;;;4965795;28;20086;-69
2021/07/15 12:46:43;;;;;;;0.38;0.38;;;;;;;;;;4964798;28;20047;-68
2021/07/15 12:49:14;;;;;;;0.85;0.25;;;;;;;;;;4969259;28;20102;-68
2021/07/15 12:51:41;;;;;;;0.20;0.20;;;;;;;;;;4967044;28;20042;-68
2021/07/15 12:54:08;;;;;;;0.38;0.30;;;;;;;;;;4968651;28;20097;-68
2021/07/15 12:56:37;;;;;;;0.25;0.10;;;;;;;;;;4966874;28;20078;-69
2021/07/15 12:59:09;;;;;;;1.17;0.40;;;;;;;;;;4967987;28;20117;-68
2021/07/15 13:01:37;;;;;;;0.40;0.40;;;;;;;;;;4965579;28;20047;-68
2021/07/15 13:04:10;;;;;;;0.70;0.70;;;;;;;;;;4965118;28;20051;-70
2021/07/15 13:06:39;;;;;;;2.20;0.90;;;;;;;;;;4967728;28;20047;-68
2021/07/15 13:14:56;;;;;;;0.40;0.40;;;;;;;;;;4968735;28;20133;-69
2021/07/15 13:17:37;;;;;;;0.30;0.20;;;;;;;;;;4978631;28;20110;-68
2021/07/15 13:20:26;;;;;;;;;;;;;;;;;;4978695;28;20501;-69
2021/07/15 13:22:54;;;;;;;1.10;0.20;;;;;;;;;;4975326;28;19926;-69
2021/07/15 13:25:23;;;;;;;0.38;0.22;;;;;;;;;;4975225;28;20113;-68
2021/07/15 13:28:06;;;;;;;0.40;0.30;;;;;;;;;;4975573;28;20086;-69
2021/07/15 13:30:33;;;;;;;0.30;0.30;;;;;;;;;;4974355;28;20058;-68
2021/07/15 13:33:13;;;;;;;0.40;0.30;;;;;;;;;;4956373;28;20082;-69
2021/07/15 13:35:40;;;;;;;0.28;0.28;;;;;;;;;;4955872;28;20090;-69
2021/07/15 13:38:07;;;;;;;0.57;0.40;;;;;;;;;;4955996;28;20539;-68
2021/07/15 13:40:35;;;;;;;0.30;0.30;;;;;;;;;;4955893;28;20082;-69
2021/07/15 13:43:15;;;;;;;0.73;0.38;;;;;;;;;;4956025;28;20577;-69
2021/07/15 13:45:43;;;;;;;0.55;0.30;;;;;;;;;;4955897;28;20142;-69
2021/07/15 13:48:11;;;;;;;0.40;0.40;;;;;;;;;;4955771;28;20514;-69
2021/07/15 13:50:38;;;;;;;1.98;0.43;;;;;;;;;;4955733;28;20074;-69
2021/07/15 13:53:05;;;;;;;0.38;0.38;;;;;;;;;;4955965;28;20086;-69
2021/07/15 13:55:31;;;;;;;0.35;0.35;;;;;;;;;;4955632;28;20086;-69
2021/07/15 13:57:58;;;;;;;0.95;0.20;;;;;;;;;;4953083;28;20088;-67
2021/07/15 14:00:32;;;;;;;0.77;0.32;;;;;;;;;;4964245;28;20070;-69
2021/07/15 14:03:01;;;;;;;0.47;0.47;;;;;;;;;;4963810;28;20497;-73
2021/07/15 14:05:32;;;;;;;0.47;0.40;;;;;;;;;;4962448;28;20074;-74
2021/07/15 14:08:02;;;;;;;0.40;0.40;;;;;;;;;;4960447;28;20051;-74
2021/07/15 14:10:29;;;;;;;0.98;0.55;;;;;;;;;;4960374;28;20501;-75
2021/07/15 14:12:55;;;;;;;1.65;0.60;;;;;;;;;;4964018;28;20182;-74
2021/07/15 14:15:33;;;;;;;0.60;0.60;;;;;;;;;;4966122;28;20043;-75
2021/07/15 14:18:00;;;;;;;;;;;;;;;;;;4963025;28;20130;-75
2021/07/15 14:20:26;;;;;;;0.60;0.60;;;;;;;;;;4962686;28;20369;-72
2021/07/15 14:22:55;;;;;;;0.57;0.55;;;;;;;;;;4962764;28;20054;-70
2021/07/15 14:25:22;;;;;;;0.50;0.43;;;;;;;;;;4969675;28;20258;-74
2021/07/15 14:27:49;;;;;;;1.85;0.60;;;;;;;;;;4985597;23;20071;-73
2021/07/15 14:30:21;;;;;;;0.95;0.40;;;;;;;;;;4963121;28;20054;-72
2021/07/15 14:32:53;;;;;;;0.85;0.60;;;;;;;;;;4960545;28;20167;-72
2021/07/15 14:35:20;;;;;;;0.85;0.65;;;;;;;;;;4949209;28;20089;-70
2021/07/15 14:37:48;;;;;;;1.30;0.50;;;;;;;;;;4960160;28;20051;-73
2021/07/15 14:40:15;;;;;;;0.63;0.52;;;;;;;;;;4962880;28;20525;-73
2021/07/15 14:42:43;;;;;;;0.40;0.40;;;;;;;;;;4961041;28;20103;-73
2021/07/15 14:45:11;;;;;;;2.13;1.00;;;;;;;;;;4960403;28;20098;-73
2021/07/15 14:47:41;;;;;;;0.55;0.55;;;;;;;;;;4961939;28;20050;-73
2021/07/15 14:50:09;;;;;;;1.15;0.60;;;;;;;;;;4961737;28;20055;-70
2021/07/15 14:52:36;;;;;;;0.70;0.70;;;;;;;;;;4963911;28;20081;-72
2021/07/15 14:55:04;;;;;;;0.60;0.60;;;;;;;;;;4962050;28;20047;-73
2021/07/15 14:57:31;;;;;;;1.38;0.47;;;;;;;;;;4961595;28;20106;-72
2021/07/15 14:59:58;;;;;;;0.50;0.50;;;;;;;;;;4961081;28;20086;-69
2021/07/15 15:02:25;;;;;;;0.45;0.40;;;;;;;;;;4961063;28;20487;-69
2021/07/15 15:04:51;;;;;;;0.60;0.60;;;;;;;;;;4963618;28;20051;-69